Creston, California
Current Conditions -  °F | °C
As of 4:53 PM on Friday 28 Nov 2014 (Local Time) from KPRB Reporting Station
Clear Clear  
Wind Chill: 68°   Ceiling: Unl
Heat Index: 68°   Visibility: 10mi
Dew Point: 32°   Wind: 9mph
Humidity: 26%   Direction: 200°SSW
Pressure: 29.9"   Gusts: NA
Location:  35.52°N, 120.52°W
Report Text: KPRB 290053Z AUTO 20008KT 10SM CLR 20/00 A2990 RMK AO2 SLP122 T02000000 TSNO
Loading
Personal Weather Stations






























Interactive Weather Map New forecast layout! Learn more

10-Day Weather Forecast

Advertisements
Track Severe Weather on mobile